createdAt,value
2022-09-12T00:03:06.976Z,15.23
2022-09-12T00:08:06.908Z,15.24
2022-09-12T00:13:06.826Z,15.27
2022-09-12T00:18:06.783Z,15.23
2022-09-12T00:23:06.885Z,15.28
2022-09-12T00:28:06.655Z,15.33
2022-09-12T00:33:06.580Z,15.35
2022-09-12T00:38:06.553Z,15.31
2022-09-12T00:43:06.458Z,15.30
2022-09-12T00:48:06.393Z,15.33
2022-09-12T00:53:06.305Z,15.24
2022-09-12T00:58:06.267Z,15.11
2022-09-12T01:03:06.187Z,15.03
2022-09-12T01:08:06.123Z,14.91
2022-09-12T01:13:06.045Z,14.80
2022-09-12T01:18:06.004Z,14.65
2022-09-12T01:23:05.921Z,14.50
2022-09-12T01:28:06.051Z,14.34
2022-09-12T01:33:05.780Z,14.25
2022-09-12T01:38:05.723Z,14.25
2022-09-12T01:43:05.761Z,14.28
2022-09-12T01:48:05.593Z,14.35
2022-09-12T01:53:05.552Z,14.39
2022-09-12T01:58:05.463Z,14.39
2022-09-12T02:03:05.392Z,14.39
2022-09-12T02:08:05.302Z,14.39
2022-09-12T02:13:05.239Z,14.39
2022-09-12T02:18:05.201Z,14.43
2022-09-12T02:23:05.124Z,14.46
2022-09-12T02:28:05.053Z,14.43
2022-09-12T02:33:05.022Z,14.42
2022-09-12T02:38:04.944Z,14.34
2022-09-12T02:43:04.836Z,14.31
2022-09-12T02:48:04.757Z,14.42
2022-09-12T02:53:04.704Z,14.34
2022-09-12T02:58:04.624Z,14.32
2022-09-12T03:03:04.544Z,14.28
2022-09-12T03:08:04.495Z,14.35
2022-09-12T03:13:04.739Z,14.32
2022-09-12T03:18:04.377Z,14.42
2022-09-12T03:23:04.397Z,14.54
2022-09-12T03:28:04.290Z,14.53
2022-09-12T03:33:04.192Z,14.53
2022-09-12T03:38:04.267Z,14.49
2022-09-12T03:43:04.452Z,14.52
2022-09-12T03:48:04.017Z,14.60
2022-09-12T03:53:04.173Z,14.54
2022-09-12T03:58:03.824Z,14.57
2022-09-12T04:03:03.806Z,14.56
2022-09-12T04:08:03.686Z,14.50
2022-09-12T04:13:03.645Z,14.47
2022-09-12T04:18:05.916Z,14.42
2022-09-12T04:23:03.490Z,14.39
2022-09-12T04:28:03.416Z,14.39
2022-09-12T04:33:07.932Z,14.49
2022-09-12T04:38:03.260Z,14.50
2022-09-12T04:43:03.396Z,14.43
2022-09-12T04:48:03.190Z,14.43
2022-09-12T04:53:03.104Z,14.47
2022-09-12T04:58:03.010Z,14.54
2022-09-12T05:03:02.967Z,14.56
2022-09-12T05:08:02.877Z,14.67
2022-09-12T05:13:02.927Z,14.62
2022-09-12T05:18:02.731Z,14.90
2022-09-12T05:23:02.678Z,15.06
2022-09-12T05:28:02.675Z,15.20
2022-09-12T05:33:02.553Z,15.20
2022-09-12T05:38:02.474Z,15.15
2022-09-12T05:43:02.418Z,15.19
2022-09-12T05:48:02.427Z,15.23
2022-09-12T05:53:02.283Z,15.36
2022-09-12T05:58:02.251Z,15.39
2022-09-12T06:03:02.208Z,15.43
2022-09-12T06:08:02.136Z,15.46
2022-09-12T06:13:02.099Z,15.60
2022-09-12T06:18:02.001Z,15.84
2022-09-12T06:23:01.964Z,16.04
2022-09-12T06:28:01.809Z,16.40
2022-09-12T06:33:01.766Z,16.37
2022-09-12T06:38:01.730Z,16.65
2022-09-12T06:43:01.670Z,16.85
2022-09-12T06:48:01.697Z,17.25
2022-09-12T06:53:01.699Z,17.10
2022-09-12T06:58:01.457Z,17.20
2022-09-12T07:03:01.401Z,17.50
2022-09-12T07:08:01.318Z,17.53
2022-09-12T07:13:01.285Z,17.47
2022-09-12T07:18:01.245Z,17.14
2022-09-12T07:23:01.111Z,17.20
2022-09-12T07:28:01.037Z,17.30
2022-09-12T07:33:00.987Z,18.00
2022-09-12T07:38:00.934Z,18.62
2022-09-12T07:43:00.878Z,18.55
2022-09-12T07:48:00.776Z,18.43
2022-09-12T07:53:00.704Z,18.87
2022-09-12T07:58:00.644Z,18.18
2022-09-12T08:03:00.593Z,18.50
2022-09-12T08:08:00.485Z,18.59
2022-09-12T08:13:00.467Z,18.54
2022-09-12T08:18:00.395Z,18.52
2022-09-12T08:23:00.309Z,18.67
2022-09-12T08:28:00.262Z,18.76
2022-09-12T08:33:00.261Z,18.50
2022-09-12T08:38:00.187Z,18.99
2022-09-12T08:43:00.268Z,19.83
2022-09-12T08:47:59.991Z,19.65
2022-09-12T08:52:59.923Z,19.60
2022-09-12T08:57:59.965Z,19.75
2022-09-12T09:03:00.041Z,20.16
2022-09-12T09:07:59.743Z,20.10
2022-09-12T09:12:59.706Z,21.16
2022-09-12T09:17:59.636Z,21.85
2022-09-12T09:22:59.573Z,22.23
2022-09-12T09:27:59.617Z,21.94
2022-09-12T09:32:59.518Z,21.71
2022-09-12T09:37:59.377Z,21.11
2022-09-12T09:42:59.338Z,21.61
2022-09-12T09:47:59.218Z,22.44
2022-09-12T09:52:59.174Z,22.47
2022-09-12T09:57:59.147Z,22.04
2022-09-12T10:02:59.089Z,22.27
2022-09-12T10:07:59.170Z,22.78
2022-09-12T10:12:58.942Z,22.41
2022-09-12T10:17:58.832Z,21.97
2022-09-12T10:22:58.771Z,22.14
2022-09-12T10:27:58.692Z,21.27
2022-09-12T10:32:58.697Z,21.38
2022-09-12T10:37:58.617Z,21.67
2022-09-12T10:42:58.474Z,22.10
2022-09-12T10:47:58.396Z,21.64
2022-09-12T10:52:58.414Z,21.27
2022-09-12T10:57:58.279Z,21.94
2022-09-12T11:02:58.239Z,22.57
2022-09-12T11:07:58.169Z,22.22
2022-09-12T11:12:58.267Z,22.43
2022-09-12T11:17:58.018Z,22.69
2022-09-12T11:22:58.010Z,22.64
2022-09-12T11:27:57.948Z,23.22
2022-09-12T11:32:57.877Z,23.86
2022-09-12T11:37:57.789Z,24.01
2022-09-12T11:42:57.698Z,23.97
2022-09-12T11:47:57.616Z,23.64
2022-09-12T11:52:57.600Z,22.16
2022-09-12T11:57:57.487Z,21.50
2022-09-12T12:02:57.427Z,21.82
2022-09-12T12:07:57.359Z,21.92
2022-09-12T12:12:57.299Z,21.78
2022-09-12T12:17:57.422Z,21.90
2022-09-12T12:22:57.216Z,22.14
2022-09-12T12:27:57.111Z,22.35
2022-09-12T12:32:57.073Z,22.90
2022-09-12T12:37:57.017Z,22.65
2022-09-12T12:42:56.912Z,22.62
2022-09-12T12:47:56.879Z,22.60
2022-09-12T12:52:56.767Z,22.43
2022-09-12T12:57:56.706Z,22.64
2022-09-12T13:02:56.693Z,22.72
2022-09-12T13:07:56.578Z,22.14
2022-09-12T13:12:56.538Z,22.34
2022-09-12T13:17:56.630Z,21.99
2022-09-12T13:22:56.416Z,22.17
2022-09-12T13:27:56.332Z,22.20
2022-09-12T13:32:56.272Z,21.71
2022-09-12T13:37:56.230Z,21.92
2022-09-12T13:42:56.144Z,21.82
2022-09-12T13:47:58.721Z,21.82
2022-09-12T13:52:56.041Z,21.74
2022-09-12T13:57:55.953Z,21.88
2022-09-12T14:02:55.902Z,21.76
2022-09-12T14:07:55.788Z,21.75
2022-09-12T14:12:55.726Z,21.72
2022-09-12T14:17:55.700Z,21.72
2022-09-12T14:22:55.610Z,21.81
2022-09-12T14:27:55.537Z,21.74
2022-09-12T14:32:55.464Z,21.90
2022-09-12T14:37:55.378Z,21.79
2022-09-12T14:43:00.564Z,21.59
2022-09-12T14:47:56.243Z,21.30
2022-09-12T14:52:55.241Z,21.30
2022-09-12T14:57:55.154Z,21.26
2022-09-12T15:02:55.056Z,21.29
2022-09-12T15:07:55.004Z,21.20
2022-09-12T15:12:54.944Z,21.39
2022-09-12T15:17:54.887Z,21.41
2022-09-12T15:22:54.797Z,21.17
2022-09-12T15:27:54.728Z,20.93
2022-09-12T15:32:54.701Z,20.98
2022-09-12T15:37:54.625Z,20.89
2022-09-12T15:42:54.567Z,20.72
2022-09-12T15:47:54.485Z,20.58
2022-09-12T15:52:54.432Z,20.61
2022-09-12T15:57:54.362Z,20.31
2022-09-12T16:02:54.321Z,20.20
2022-09-12T16:07:54.228Z,20.13
2022-09-12T16:12:54.173Z,20.06
2022-09-12T16:17:54.097Z,19.97
2022-09-12T16:22:54.064Z,19.84
2022-09-12T16:27:53.985Z,19.91
2022-09-12T16:32:53.938Z,19.84
2022-09-12T16:37:53.915Z,19.95
2022-09-12T16:42:53.767Z,19.78
2022-09-12T16:47:53.755Z,19.58
2022-09-12T16:52:53.617Z,19.73
2022-09-12T16:57:53.561Z,19.42
2022-09-12T17:02:53.644Z,19.33
2022-09-12T17:07:53.443Z,19.24
2022-09-12T17:12:53.397Z,19.20
2022-09-12T17:17:53.316Z,19.43
2022-09-12T17:22:53.228Z,19.20
2022-09-12T17:27:53.180Z,19.51
2022-09-12T17:32:53.099Z,19.87
2022-09-12T17:37:53.038Z,19.01
2022-09-12T17:42:53.171Z,19.01
2022-09-12T17:47:52.897Z,18.67
2022-09-12T17:52:52.828Z,18.54
2022-09-12T17:57:52.782Z,19.31
2022-09-12T18:02:52.756Z,18.84
2022-09-12T18:07:52.623Z,18.19
2022-09-12T18:12:52.624Z,18.40
2022-09-12T18:17:52.484Z,18.34
2022-09-12T18:22:52.445Z,18.24
2022-09-12T18:27:52.376Z,17.76
2022-09-12T18:32:52.316Z,17.54
2022-09-12T18:37:52.248Z,17.91
2022-09-12T18:42:52.166Z,18.02
2022-09-12T18:47:52.116Z,17.78
2022-09-12T18:52:53.327Z,17.81
2022-09-12T18:57:51.966Z,17.66
2022-09-12T19:02:51.920Z,17.15
2022-09-12T19:07:51.828Z,17.29
2022-09-12T19:12:51.778Z,17.41
2022-09-12T19:17:51.758Z,16.80
2022-09-12T19:22:51.656Z,16.90
2022-09-12T19:27:51.639Z,17.04
2022-09-12T19:32:51.528Z,16.81
2022-09-12T19:37:51.440Z,16.22
2022-09-12T19:42:51.380Z,15.89
2022-09-12T19:47:51.317Z,15.94
2022-09-12T19:52:51.411Z,15.92
2022-09-12T19:57:51.190Z,16.35
2022-09-12T20:02:51.141Z,16.22
2022-09-12T20:07:51.040Z,15.78
2022-09-12T20:12:50.994Z,15.48
2022-09-12T20:17:50.953Z,15.31
2022-09-12T20:22:50.865Z,15.01
2022-09-12T20:27:50.837Z,14.87
2022-09-12T20:32:50.765Z,14.69
2022-09-12T20:37:51.422Z,14.53
2022-09-12T20:42:50.632Z,14.38
2022-09-12T20:47:50.544Z,14.24
2022-09-12T20:52:50.483Z,14.12
2022-09-12T20:57:50.480Z,14.07
2022-09-12T21:02:50.406Z,14.10
2022-09-12T21:07:50.243Z,14.20
2022-09-12T21:12:50.237Z,14.12
2022-09-12T21:17:50.123Z,14.12
2022-09-12T21:22:50.044Z,13.96
2022-09-12T21:27:49.977Z,13.84
2022-09-12T21:32:49.909Z,13.84
2022-09-12T21:37:49.846Z,13.77
2022-09-12T21:42:49.788Z,13.89
2022-09-12T21:47:49.716Z,13.95
2022-09-12T21:52:49.654Z,14.09
2022-09-12T21:57:49.611Z,14.01
2022-09-12T22:02:49.720Z,14.02
2022-09-12T22:07:49.455Z,13.94
2022-09-12T22:12:49.452Z,14.02
2022-09-12T22:17:49.309Z,13.94
2022-09-12T22:22:49.247Z,13.92
2022-09-12T22:27:49.238Z,13.73
2022-09-12T22:32:49.113Z,13.71
2022-09-12T22:37:49.037Z,13.69
2022-09-12T22:42:48.986Z,13.71
2022-09-12T22:47:48.910Z,13.55
2022-09-12T22:52:48.862Z,13.44
2022-09-12T22:57:48.776Z,13.37
2022-09-12T23:02:48.754Z,13.27
2022-09-12T23:07:48.834Z,13.25
2022-09-12T23:12:48.577Z,13.21
2022-09-12T23:17:48.516Z,13.14
2022-09-12T23:22:48.476Z,13.12
2022-09-12T23:27:48.413Z,13.11
2022-09-12T23:32:48.360Z,13.09
2022-09-12T23:37:48.292Z,13.07
2022-09-12T23:42:48.219Z,13.00
2022-09-12T23:47:48.150Z,12.97
2022-09-12T23:52:48.077Z,12.95
2022-09-12T23:57:48.025Z,12.89
